createdAt,value
2018-04-11T00:01:54.938Z,93.20
2018-04-11T00:04:23.232Z,93.10
2018-04-11T00:06:51.909Z,93.00
2018-04-11T00:09:20.385Z,93.00
2018-04-11T00:11:50.112Z,93.10
2018-04-11T00:14:19.295Z,93.00
2018-04-11T00:16:48.497Z,93.00
2018-04-11T00:19:16.348Z,93.10
2018-04-11T00:21:44.527Z,93.10
2018-04-11T00:24:12.788Z,93.10
2018-04-11T00:26:41.162Z,92.80
2018-04-11T00:29:09.047Z,92.80
2018-04-11T00:31:37.317Z,93.00
2018-04-11T00:34:06.401Z,93.00
2018-04-11T00:36:34.386Z,93.00
2018-04-11T00:39:02.552Z,93.00
2018-04-11T00:41:30.628Z,93.10
2018-04-11T00:43:58.918Z,93.60
2018-04-11T00:46:27.938Z,93.80
2018-04-11T00:48:57.099Z,93.90
2018-04-11T00:51:26.200Z,93.90
2018-04-11T00:53:55.086Z,94.00
2018-04-11T00:56:23.261Z,94.10
2018-04-11T00:58:51.531Z,94.00
2018-04-11T01:01:20.095Z,94.00
2018-04-11T01:03:48.277Z,93.80
2018-04-11T01:06:16.843Z,93.70
2018-04-11T01:08:45.056Z,93.70
2018-04-11T01:11:13.720Z,93.70
2018-04-11T01:13:42.111Z,93.60
2018-04-11T01:16:09.960Z,93.50
2018-04-11T01:18:38.214Z,93.80
2018-04-11T01:21:06.529Z,93.70
2018-04-11T01:23:35.383Z,93.60
2018-04-11T01:26:03.983Z,93.60
2018-04-11T01:28:31.857Z,93.40
2018-04-11T01:31:00.251Z,93.50
2018-04-11T01:33:29.225Z,93.10
2018-04-11T01:35:57.420Z,93.10
2018-04-11T01:38:26.717Z,93.00
2018-04-11T01:40:55.767Z,93.10
2018-04-11T01:43:23.960Z,93.10
2018-04-11T01:45:52.137Z,92.70
2018-04-11T01:48:20.653Z,92.90
2018-04-11T01:50:49.505Z,93.20
2018-04-11T01:53:17.889Z,93.20
2018-04-11T01:55:45.943Z,93.80
2018-04-11T01:58:14.232Z,93.90
2018-04-11T02:00:42.712Z,94.20
2018-04-11T02:03:10.892Z,94.30
2018-04-11T02:05:39.907Z,94.40
2018-04-11T02:08:08.877Z,94.40
2018-04-11T02:10:36.840Z,94.40
2018-04-11T02:13:04.812Z,94.60
2018-04-11T02:15:32.884Z,94.60
2018-04-11T02:18:01.163Z,94.80
2018-04-11T02:20:29.710Z,94.70
2018-04-11T02:22:58.008Z,94.60
2018-04-11T02:25:26.186Z,94.80
2018-04-11T02:27:54.054Z,95.20
2018-04-11T02:30:22.553Z,95.00
2018-04-11T02:32:51.493Z,94.80
2018-04-11T02:35:19.993Z,94.50
2018-04-11T02:37:48.160Z,94.90
2018-04-11T02:40:16.665Z,95.10
2018-04-11T02:42:44.839Z,95.30
2018-04-11T02:45:12.812Z,95.40
2018-04-11T02:47:40.883Z,95.70
2018-04-11T02:50:08.961Z,95.50
2018-04-11T02:52:37.227Z,95.30
2018-04-11T02:55:05.403Z,95.20
2018-04-11T02:57:34.392Z,95.20
2018-04-11T03:00:02.465Z,95.20
2018-04-11T03:02:30.433Z,95.40
2018-04-11T03:04:58.407Z,95.70
2018-04-11T03:07:26.375Z,95.80
2018-04-11T03:09:55.658Z,96.10
2018-04-11T03:12:23.838Z,96.10
2018-04-11T03:14:52.019Z,96.70
2018-04-11T03:17:21.852Z,96.90
2018-04-11T03:19:50.929Z,96.80
2018-04-11T03:22:19.093Z,96.80
2018-04-11T03:24:47.472Z,97.00
2018-04-11T03:27:15.651Z,96.60
2018-04-11T03:29:44.022Z,96.70
2018-04-11T03:32:12.167Z,96.90
2018-04-11T03:34:40.366Z,96.80
2018-04-11T03:37:08.237Z,96.90
2018-04-11T03:39:37.536Z,96.80
2018-04-11T03:42:05.646Z,96.70
2018-04-11T03:44:33.579Z,96.70
2018-04-11T03:47:01.891Z,96.60
2018-04-11T03:49:30.023Z,97.30
2018-04-11T03:51:58.607Z,97.60
2018-04-11T03:54:26.885Z,97.50
2018-04-11T03:56:55.059Z,97.20
2018-04-11T03:59:23.945Z,97.70
2018-04-11T04:01:52.102Z,97.70
2018-04-11T04:04:20.191Z,97.70
2018-04-11T04:06:48.502Z,97.70
2018-04-11T04:09:17.356Z,97.70
2018-04-11T04:11:45.536Z,97.70
2018-04-11T04:14:26.200Z,98.10
2018-04-11T04:17:06.050Z,98.10
2018-04-11T04:22:39.047Z,98.10
2018-04-11T04:25:07.022Z,98.10
2018-04-11T04:27:35.296Z,98.00
2018-04-11T04:30:03.263Z,98.00
2018-04-11T04:32:32.226Z,97.70
2018-04-11T04:35:00.491Z,97.40
2018-04-11T04:37:28.800Z,97.20
2018-04-11T04:39:57.161Z,96.90
2018-04-11T04:42:25.575Z,96.80
2018-04-11T04:44:54.549Z,96.80
2018-04-11T04:47:23.575Z,96.40
2018-04-11T04:49:51.894Z,96.30
2018-04-11T04:52:19.988Z,96.10
2018-04-11T04:54:48.061Z,96.10
2018-04-11T04:57:16.134Z,96.00
2018-04-11T04:59:44.104Z,95.70
2018-04-11T05:02:13.403Z,95.70
2018-04-11T05:04:41.782Z,95.70
2018-04-11T05:07:09.931Z,95.40
2018-04-11T05:09:38.044Z,95.40
2018-04-11T05:12:07.288Z,95.30
2018-04-11T05:14:35.392Z,95.10
2018-04-11T05:17:03.718Z,94.90
2018-04-11T05:19:32.382Z,94.80
2018-04-11T05:22:01.651Z,94.20
2018-04-11T05:24:30.072Z,94.20
2018-04-11T05:26:59.360Z,93.80
2018-04-11T05:29:28.859Z,93.40
2018-04-11T05:31:59.088Z,93.70
2018-04-11T05:34:28.372Z,93.20
2018-04-11T05:36:57.548Z,93.20
2018-04-11T05:39:25.723Z,93.00
2018-04-11T05:41:54.817Z,92.70
2018-04-11T05:44:24.537Z,91.40
2018-04-11T05:46:55.978Z,90.60
2018-04-11T05:49:24.378Z,90.60
2018-04-11T05:51:54.877Z,88.20
2018-04-11T05:54:23.578Z,88.00
2018-04-11T05:56:52.102Z,86.00
2018-04-11T05:59:20.737Z,85.20
2018-04-11T06:01:49.197Z,83.70
2018-04-11T06:04:17.639Z,82.50
2018-04-11T06:06:46.734Z,79.70
2018-04-11T06:09:15.365Z,79.60
2018-04-11T06:11:43.824Z,79.30
2018-04-11T06:14:13.222Z,78.10
2018-04-11T06:16:41.773Z,76.60
2018-04-11T06:19:11.254Z,79.00
2018-04-11T06:21:39.847Z,79.00
2018-04-11T06:24:08.695Z,79.90
2018-04-11T06:26:37.301Z,81.20
2018-04-11T06:29:25.235Z,81.80
2018-04-11T06:32:00.742Z,81.90
2018-04-11T06:34:29.641Z,81.80
2018-04-11T06:37:02.962Z,81.50
2018-04-11T06:39:33.742Z,77.60
2018-04-11T06:42:03.670Z,77.60
2018-04-11T06:44:35.562Z,76.30
2018-04-11T06:52:45.999Z,70.90
2018-04-11T06:55:16.747Z,64.90
2018-04-11T06:57:47.327Z,64.90
2018-04-11T07:00:15.840Z,64.30
2018-04-11T07:02:45.691Z,64.10
2018-04-11T07:05:14.960Z,64.00
2018-04-11T07:07:43.619Z,63.20
2018-04-11T07:10:12.896Z,61.80
2018-04-11T07:12:41.296Z,59.80
2018-04-11T07:15:09.683Z,60.00
2018-04-11T07:17:39.804Z,58.00
2018-04-11T07:20:07.978Z,58.00
2018-04-11T07:22:37.148Z,54.30
2018-04-11T07:25:05.320Z,54.10
2018-04-11T07:27:33.714Z,52.80
2018-04-11T07:30:02.032Z,51.60
2018-04-11T07:32:31.516Z,50.40
2018-04-11T07:35:00.625Z,48.90
2018-04-11T07:37:29.506Z,48.00
2018-04-11T07:39:58.162Z,47.70
2018-04-11T07:42:26.377Z,47.70
2018-04-11T07:44:55.533Z,48.70
2018-04-11T07:47:23.825Z,48.70
2018-04-11T07:49:52.135Z,50.20
2018-04-11T07:52:20.776Z,49.60
2018-04-11T07:54:49.181Z,47.30
2018-04-11T07:57:18.458Z,44.30
2018-04-11T07:59:46.620Z,44.30
2018-04-11T08:02:15.202Z,44.30
2018-04-11T08:04:43.913Z,44.50
2018-04-11T08:07:13.355Z,44.00
2018-04-11T08:09:42.005Z,44.00
2018-04-11T08:12:10.969Z,41.30
2018-04-11T08:14:39.180Z,41.20
2018-04-11T08:17:08.272Z,41.00
2018-04-11T08:19:37.834Z,40.10
2018-04-11T08:22:06.015Z,40.10
2018-04-11T08:24:34.223Z,39.20
2018-04-11T08:27:03.323Z,38.50
2018-04-11T08:29:32.427Z,39.20
2018-04-11T08:32:00.558Z,39.30
2018-04-11T08:34:30.459Z,38.90
2018-04-11T08:36:58.781Z,37.70
2018-04-11T08:39:28.447Z,36.00
2018-04-11T08:41:57.652Z,36.00
2018-04-11T08:44:26.142Z,37.00
2018-04-11T08:46:55.150Z,36.00
2018-04-11T08:49:25.237Z,37.20
2018-04-11T08:51:53.481Z,37.20
2018-04-11T08:54:21.912Z,38.70
2018-04-11T08:56:51.366Z,40.60
2018-04-11T08:59:19.753Z,40.60
2018-04-11T09:01:47.877Z,39.00
2018-04-11T09:04:16.983Z,37.60
2018-04-11T09:06:45.936Z,35.70
2018-04-11T09:09:14.214Z,35.70
2018-04-11T09:11:43.625Z,35.00
2018-04-11T09:14:12.172Z,35.60
2018-04-11T09:16:40.705Z,35.30
2018-04-11T09:19:10.207Z,34.50
2018-04-11T09:21:39.318Z,35.20
2018-04-11T09:24:08.793Z,35.70
2018-04-11T09:26:37.255Z,35.70
2018-04-11T09:29:05.724Z,35.20
2018-04-11T09:31:33.836Z,35.90
2018-04-11T09:34:01.790Z,36.20
2018-04-11T09:36:29.654Z,36.40
2018-04-11T09:38:57.741Z,36.60
2018-04-11T09:41:25.983Z,36.50
2018-04-11T09:43:54.419Z,37.30
2018-04-11T09:46:23.391Z,41.40
2018-04-11T09:48:52.540Z,42.40
2018-04-11T09:51:20.735Z,42.30
2018-04-11T09:53:49.858Z,42.80
2018-04-11T09:56:19.117Z,39.90
2018-04-11T09:58:47.001Z,40.50
2018-04-11T10:01:18.930Z,38.80
2018-04-11T10:03:46.963Z,38.50
2018-04-11T10:06:16.727Z,35.60
2018-04-11T10:08:46.260Z,35.50
2018-04-11T10:11:14.434Z,36.00
2018-04-11T10:13:42.736Z,35.30
2018-04-11T10:16:11.820Z,36.40
2018-04-11T10:18:40.884Z,37.60
2018-04-11T10:21:09.060Z,37.60
2018-04-11T10:23:37.460Z,38.10
2018-04-11T10:26:06.506Z,39.40
2018-04-11T10:28:35.082Z,39.40
2018-04-11T10:31:03.612Z,39.70
2018-04-11T10:33:32.040Z,40.50
2018-04-11T10:35:59.940Z,40.00
2018-04-11T10:38:27.941Z,39.40
2018-04-11T10:40:58.531Z,37.10
2018-04-11T10:43:27.125Z,37.10
2018-04-11T10:45:55.523Z,36.70
2018-04-11T10:48:25.239Z,37.20
2018-04-11T10:50:54.940Z,37.10
2018-04-11T10:53:22.961Z,37.00
2018-04-11T10:55:51.394Z,37.30
2018-04-11T10:58:19.930Z,36.30
2018-04-11T11:00:48.365Z,35.30
2018-04-11T11:03:17.332Z,33.60
2018-04-11T11:05:45.356Z,33.60
2018-04-11T11:08:13.614Z,33.70
2018-04-11T11:10:43.088Z,33.10
2018-04-11T11:13:12.167Z,33.90
2018-04-11T11:15:40.428Z,33.90
2018-04-11T11:18:09.018Z,35.50
2018-04-11T11:20:37.753Z,36.30
2018-04-11T11:23:07.436Z,34.90
2018-04-11T11:25:36.833Z,34.00
2018-04-11T11:28:05.085Z,33.90
2018-04-11T11:30:33.100Z,33.40
2018-04-11T11:33:02.176Z,31.20
2018-04-11T11:35:30.481Z,31.20
2018-04-11T11:37:59.603Z,28.20
2018-04-11T11:40:28.250Z,28.10
2018-04-11T11:42:57.590Z,27.60
2018-04-11T11:45:25.802Z,27.50
2018-04-11T11:47:54.255Z,28.10
2018-04-11T11:50:22.737Z,26.80
2018-04-11T11:52:51.041Z,27.90
2018-04-11T11:55:19.396Z,28.40
2018-04-11T11:57:47.593Z,29.10
2018-04-11T12:00:15.774Z,30.40
2018-04-11T12:02:43.927Z,30.00
2018-04-11T12:05:12.111Z,29.00
2018-04-11T12:07:40.496Z,28.40
2018-04-11T12:10:08.676Z,28.00
2018-04-11T12:12:37.697Z,29.00
2018-04-11T12:15:06.200Z,29.50
2018-04-11T12:17:34.405Z,29.00
2018-04-11T12:20:02.678Z,29.60
2018-04-11T12:22:30.960Z,30.10
2018-04-11T12:24:59.222Z,31.40
2018-04-11T12:27:27.724Z,33.50
2018-04-11T12:29:55.997Z,34.70
2018-04-11T12:32:24.946Z,35.50
2018-04-11T12:34:53.111Z,35.20
2018-04-11T12:37:21.563Z,35.30
2018-04-11T12:39:51.026Z,35.60
2018-04-11T12:42:19.317Z,35.50
2018-04-11T12:44:47.814Z,35.90
2018-04-11T12:47:17.233Z,33.70
2018-04-11T12:49:46.475Z,32.90
2018-04-11T12:52:15.188Z,33.00
2018-04-11T12:54:43.678Z,33.70
2018-04-11T12:57:12.436Z,34.90
2018-04-11T12:59:41.295Z,34.50
2018-04-11T13:02:09.794Z,35.10
2018-04-11T13:04:39.210Z,35.30
2018-04-11T13:07:07.514Z,36.50
2018-04-11T13:09:36.119Z,38.00
2018-04-11T13:12:05.487Z,40.20
2018-04-11T13:14:33.670Z,40.20
2018-04-11T13:17:02.212Z,40.00
2018-04-11T13:19:31.021Z,39.70
2018-04-11T13:21:59.313Z,40.30
2018-04-11T13:24:27.284Z,40.20
2018-04-11T13:26:55.682Z,39.70
2018-04-11T13:29:25.459Z,39.30
2018-04-11T13:31:54.053Z,39.30
2018-04-11T13:34:22.352Z,38.60
2018-04-11T13:36:51.429Z,39.00
2018-04-11T13:39:19.804Z,39.00
2018-04-11T13:41:48.383Z,39.20
2018-04-11T13:44:17.079Z,38.60
2018-04-11T13:46:45.214Z,38.20
2018-04-11T13:49:13.340Z,38.40
2018-04-11T13:51:42.529Z,38.50
2018-04-11T13:54:10.797Z,39.20
2018-04-11T13:56:38.872Z,39.30
2018-04-11T13:59:06.842Z,37.30
2018-04-11T14:01:35.743Z,33.10
2018-04-11T14:04:05.595Z,32.40
2018-04-11T14:06:33.921Z,32.40
2018-04-11T14:09:02.676Z,32.90
2018-04-11T14:11:31.083Z,31.70
2018-04-11T14:13:59.231Z,32.30
2018-04-11T14:16:27.421Z,32.20
2018-04-11T14:18:55.800Z,31.90
2018-04-11T14:21:24.200Z,31.80
2018-04-11T14:23:53.813Z,31.70
2018-04-11T14:26:23.296Z,31.80
2018-04-11T14:28:51.763Z,31.70
2018-04-11T14:31:20.247Z,32.30
2018-04-11T14:33:48.399Z,31.80
2018-04-11T14:36:16.920Z,31.00
2018-04-11T14:38:46.856Z,30.80
2018-04-11T14:41:16.256Z,30.60
2018-04-11T14:43:45.455Z,31.40
2018-04-11T14:46:15.742Z,31.50
2018-04-11T14:48:44.643Z,31.50
2018-04-11T14:51:13.639Z,32.70
2018-04-11T14:53:42.826Z,36.00
2018-04-11T14:56:10.897Z,35.90
2018-04-11T14:58:39.035Z,36.80
2018-04-11T15:01:07.972Z,36.60
2018-04-11T15:03:36.058Z,34.60
2018-04-11T15:06:05.672Z,33.00
2018-04-11T15:08:34.837Z,32.10
2018-04-11T15:11:03.122Z,32.00
2018-04-11T15:13:31.328Z,32.40
2018-04-11T15:15:59.815Z,33.10
2018-04-11T15:18:28.415Z,33.60
2018-04-11T15:20:57.421Z,34.60
2018-04-11T15:23:25.718Z,35.70
2018-04-11T15:25:54.223Z,37.70
2018-04-11T15:28:23.164Z,37.80
2018-04-11T15:30:51.340Z,37.80
2018-04-11T15:33:19.328Z,37.10
2018-04-11T15:35:47.578Z,36.60
2018-04-11T15:38:16.113Z,36.10
2018-04-11T15:40:45.220Z,34.10
2018-04-11T15:43:14.396Z,32.80
2018-04-11T15:45:43.596Z,33.30
2018-04-11T15:48:11.853Z,33.30
2018-04-11T15:50:40.239Z,34.30
2018-04-11T15:53:08.417Z,35.60
2018-04-11T15:55:38.730Z,38.40
2018-04-11T15:58:06.597Z,38.30
2018-04-11T16:00:34.671Z,39.40
2018-04-11T16:03:03.041Z,40.10
2018-04-11T16:05:31.196Z,39.80
2018-04-11T16:07:59.290Z,40.00
2018-04-11T16:10:27.154Z,40.10
2018-04-11T16:12:55.228Z,40.20
2018-04-11T16:15:24.459Z,40.70
2018-04-11T16:17:52.708Z,40.70
2018-04-11T16:20:20.977Z,40.80
2018-04-11T16:22:49.183Z,40.90
2018-04-11T16:25:17.842Z,41.10
2018-04-11T16:27:45.808Z,41.10
2018-04-11T16:30:14.057Z,41.70
2018-04-11T16:32:42.158Z,41.50
2018-04-11T16:35:10.330Z,42.00
2018-04-11T16:37:38.692Z,42.80
2018-04-11T16:40:06.797Z,41.80
2018-04-11T16:42:35.667Z,42.10
2018-04-11T16:45:03.746Z,42.00
2018-04-11T16:47:31.710Z,42.30
2018-04-11T16:49:59.780Z,42.40
2018-04-11T16:52:27.952Z,42.70
2018-04-11T16:54:55.920Z,42.30
2018-04-11T16:57:24.006Z,42.60
2018-04-11T16:59:52.732Z,42.90
2018-04-11T17:02:22.159Z,43.10
2018-04-11T17:04:50.401Z,43.40
2018-04-11T17:07:18.632Z,43.30
2018-04-11T17:09:46.600Z,43.20
2018-04-11T17:12:14.500Z,43.70
2018-04-11T17:14:43.527Z,44.50
2018-04-11T17:17:11.522Z,44.50
2018-04-11T17:19:39.709Z,44.00
2018-04-11T17:22:19.963Z,44.10
2018-04-11T17:24:59.912Z,44.30
2018-04-11T17:30:44.174Z,44.90
2018-04-11T17:33:12.247Z,45.00
2018-04-11T17:35:40.727Z,45.40
2018-04-11T17:38:08.598Z,46.00
2018-04-11T17:40:36.770Z,45.60
2018-04-11T17:43:04.949Z,45.90
2018-04-11T17:45:33.180Z,46.00
2018-04-11T17:48:01.187Z,46.50
2018-04-11T17:50:29.457Z,45.90
2018-04-11T17:52:57.599Z,46.90
2018-04-11T17:55:25.605Z,47.10
2018-04-11T17:57:53.927Z,46.80
2018-04-11T18:00:22.144Z,47.20
2018-04-11T18:02:50.327Z,47.40
2018-04-11T18:05:18.297Z,47.30
2018-04-11T18:07:46.162Z,47.50
2018-04-11T18:10:14.245Z,48.10
2018-04-11T18:12:42.203Z,48.10
2018-04-11T18:15:10.257Z,48.70
2018-04-11T18:17:38.142Z,49.20
2018-04-11T18:20:06.217Z,49.60
2018-04-11T18:22:34.456Z,49.60
2018-04-11T18:25:02.353Z,50.30
2018-04-11T18:27:30.529Z,50.00
2018-04-11T18:29:59.566Z,50.50
2018-04-11T18:32:27.488Z,50.40
2018-04-11T18:34:55.564Z,50.80
2018-04-11T18:37:24.964Z,51.10
2018-04-11T18:39:53.137Z,51.10
2018-04-11T18:42:24.001Z,51.40
2018-04-11T18:44:52.150Z,51.40
2018-04-11T18:47:20.268Z,51.50
2018-04-11T18:49:49.108Z,52.30
2018-04-11T18:52:17.181Z,52.20
2018-04-11T18:54:45.670Z,53.00
2018-04-11T18:57:13.938Z,53.40
2018-04-11T18:59:42.077Z,53.80
2018-04-11T19:02:10.691Z,55.50
2018-04-11T19:04:38.991Z,56.20
2018-04-11T19:07:07.862Z,58.10
2018-04-11T19:09:35.920Z,58.00
2018-04-11T19:12:04.308Z,58.90
2018-04-11T19:14:32.482Z,59.60
2018-04-11T19:17:00.548Z,60.00
2018-04-11T19:19:28.944Z,60.90
2018-04-11T19:21:58.022Z,62.30
2018-04-11T19:24:25.989Z,62.30
2018-04-11T19:26:54.023Z,62.40
2018-04-11T19:29:22.349Z,62.70
2018-04-11T19:31:50.713Z,63.00
2018-04-11T19:34:20.535Z,63.70
2018-04-11T19:36:48.908Z,63.70
2018-04-11T19:39:17.375Z,63.90
2018-04-11T19:41:45.352Z,64.50
2018-04-11T19:44:13.432Z,65.00
2018-04-11T19:46:42.487Z,65.50
2018-04-11T19:49:10.702Z,65.50
2018-04-11T19:51:38.671Z,65.60
2018-04-11T19:54:06.847Z,66.10
2018-04-11T19:56:35.002Z,66.30
2018-04-11T19:59:03.394Z,66.40
2018-04-11T20:01:31.673Z,66.10
2018-04-11T20:03:59.725Z,66.50
2018-04-11T20:06:27.910Z,67.10
2018-04-11T20:08:57.303Z,68.80
2018-04-11T20:11:25.278Z,68.70
2018-04-11T20:13:53.519Z,69.40
2018-04-11T20:16:21.627Z,68.70
2018-04-11T20:18:49.902Z,68.30
2018-04-11T20:21:18.053Z,69.10
2018-04-11T20:23:46.291Z,68.20
2018-04-11T20:26:14.502Z,69.00
2018-04-11T20:28:42.593Z,70.00
2018-04-11T20:31:10.774Z,70.60
2018-04-11T20:33:39.062Z,71.90
2018-04-11T20:36:08.549Z,73.00
2018-04-11T20:38:36.727Z,72.20
2018-04-11T20:41:04.793Z,72.70
2018-04-11T20:43:32.733Z,73.00
2018-04-11T20:46:01.142Z,73.10
2018-04-11T20:48:29.537Z,73.90
2018-04-11T20:50:58.207Z,74.00
2018-04-11T20:53:26.276Z,73.80
2018-04-11T20:55:54.466Z,74.90
2018-04-11T20:58:23.423Z,75.20
2018-04-11T21:00:51.702Z,75.20
2018-04-11T21:03:20.608Z,75.60
2018-04-11T21:05:48.678Z,76.00
2018-04-11T21:08:16.964Z,76.00
2018-04-11T21:10:45.112Z,77.00
2018-04-11T21:13:13.306Z,76.90
2018-04-11T21:15:41.753Z,76.90
2018-04-11T21:18:09.724Z,77.10
2018-04-11T21:20:37.717Z,76.70
2018-04-11T21:23:06.008Z,77.70
2018-04-11T21:25:34.133Z,77.30
2018-04-11T21:28:02.456Z,77.40
2018-04-11T21:30:30.694Z,77.80
2018-04-11T21:32:58.699Z,78.50
2018-04-11T21:35:26.653Z,78.80
2018-04-11T21:37:54.839Z,78.60
2018-04-11T21:40:23.298Z,79.50
2018-04-11T21:42:52.188Z,78.70
2018-04-11T21:45:20.343Z,78.70
2018-04-11T21:47:48.763Z,79.00
2018-04-11T21:50:16.876Z,78.90
2018-04-11T21:52:45.219Z,78.40
2018-04-11T21:55:14.204Z,80.50
2018-04-11T21:57:42.476Z,80.50
2018-04-11T22:00:11.563Z,80.50
2018-04-11T22:02:39.633Z,80.70
2018-04-11T22:05:07.609Z,81.00
2018-04-11T22:07:35.873Z,81.00
2018-04-11T22:10:03.953Z,80.90
2018-04-11T22:12:32.843Z,80.00
2018-04-11T22:15:00.702Z,80.00
2018-04-11T22:17:29.083Z,79.60
2018-04-11T22:19:57.125Z,79.90
2018-04-11T22:22:25.633Z,79.80
2018-04-11T22:24:53.617Z,79.40
2018-04-11T22:27:22.806Z,79.40
2018-04-11T22:29:50.850Z,79.40
2018-04-11T22:32:19.033Z,79.30
2018-04-11T22:34:46.913Z,79.40
2018-04-11T22:37:14.993Z,80.40
2018-04-11T22:39:43.053Z,79.40
2018-04-11T22:42:11.638Z,79.50
2018-04-11T22:44:40.635Z,80.30
2018-04-11T22:47:08.879Z,80.30
2018-04-11T22:49:37.792Z,80.00
2018-04-11T22:52:05.868Z,80.50
2018-04-11T22:54:34.054Z,81.30
2018-04-11T22:57:02.313Z,80.70
2018-04-11T22:59:30.588Z,80.90
2018-04-11T23:01:58.969Z,81.00
2018-04-11T23:04:26.838Z,80.70
2018-04-11T23:06:56.451Z,81.00
2018-04-11T23:09:24.514Z,81.00
2018-04-11T23:11:52.583Z,81.10
2018-04-11T23:14:20.862Z,81.20
2018-04-11T23:16:48.829Z,81.50
2018-04-11T23:19:17.108Z,81.00
2018-04-11T23:21:45.368Z,80.50
2018-04-11T23:24:13.449Z,80.90
2018-04-11T23:26:41.418Z,81.20
2018-04-11T23:29:09.602Z,81.40
2018-04-11T23:31:37.769Z,81.40
2018-04-11T23:34:05.738Z,81.30
2018-04-11T23:36:33.703Z,80.40
2018-04-11T23:39:01.778Z,80.70
2018-04-11T23:41:30.093Z,81.50
2018-04-11T23:43:58.222Z,81.30
2018-04-11T23:46:26.372Z,81.80
2018-04-11T23:48:54.469Z,81.30
2018-04-11T23:51:22.642Z,81.20
2018-04-11T23:53:50.723Z,81.00
2018-04-11T23:56:18.672Z,81.00
2018-04-11T23:58:46.746Z,81.30
